Time;durP1;ratioP1;P1;durP2;ratioP2;P2;SDS_P1;SDS_P2;PMS_P1;PMS_P2;Temp;Humidity;BMP_temperature;BMP_pressure;BME280_temperature;BME280_humidity;BME280_pressure;Samples;Min_cycle;Max_cycle;Signal;HPM_P1;HPM_P2
2022/07/04 00:02:07;;;;;;;3.10;2.90;;;21.80;99.90;;;;;;4991766;28;20204;-65
2022/07/04 00:04:32;;;;;;;4.47;3.20;;;21.70;99.90;;;;;;4991703;28;20179;-66
2022/07/04 00:06:58;;;;;;;3.17;2.97;;;21.80;99.90;;;;;;4992290;28;20238;-66
2022/07/04 00:09:23;;;;;;;3.00;2.60;;;21.80;99.90;;;;;;4990766;28;20190;-65
2022/07/04 00:11:49;;;;;;;3.30;2.90;;;21.80;99.90;;;;;;4989088;28;20267;-65
2022/07/04 00:14:14;;;;;;;2.97;2.53;;;21.90;99.90;;;;;;4994838;28;20653;-65
2022/07/04 00:16:40;;;;;;;4.03;3.40;;;21.80;99.90;;;;;;5004671;28;20206;-66
2022/07/04 00:19:05;;;;;;;2.43;2.33;;;21.70;99.90;;;;;;5007720;28;20273;-65
2022/07/04 00:21:31;;;;;;;3.03;2.83;;;21.60;99.90;;;;;;4998070;28;20191;-65
2022/07/04 00:23:57;;;;;;;2.83;2.73;;;21.50;99.90;;;;;;5000443;28;20194;-65
2022/07/04 00:26:23;;;;;;;3.53;2.40;;;21.50;99.90;;;;;;4999937;28;20208;-65
2022/07/04 00:28:48;;;;;;;2.80;2.60;;;21.50;99.90;;;;;;4992361;28;20184;-66
2022/07/04 00:31:14;;;;;;;3.57;3.20;;;21.50;99.90;;;;;;5001362;28;20177;-66
2022/07/04 00:33:39;;;;;;;3.20;2.90;;;21.50;99.90;;;;;;4991929;28;20266;-64
2022/07/04 00:36:05;;;;;;;4.20;2.57;;;21.50;99.90;;;;;;4997839;28;20245;-65
2022/07/04 00:38:31;;;;;;;3.10;2.90;;;21.50;99.90;;;;;;4990919;28;20191;-66
2022/07/04 00:40:56;;;;;;;3.03;2.63;;;21.50;99.90;;;;;;4992617;28;20211;-67
2022/07/04 00:43:26;;;;;;;4.00;3.30;;;21.50;99.90;;;;;;4993639;28;20207;-65
2022/07/04 00:45:52;;;;;;;3.43;2.90;;;21.50;99.90;;;;;;4991865;28;20195;-67
2022/07/04 00:48:18;;;;;;;3.13;2.83;;;21.40;99.90;;;;;;4998989;28;20458;-66
2022/07/04 00:50:45;;;;;;;2.70;2.50;;;21.40;99.90;;;;;;4991566;28;20190;-65
2022/07/04 00:53:12;;;;;;;3.87;2.70;;;21.40;99.90;;;;;;4998234;28;20442;-66
2022/07/04 00:55:38;;;;;;;3.30;2.70;;;21.40;99.90;;;;;;4992489;28;20442;-65
2022/07/04 00:58:04;;;;;;;2.77;2.57;;;21.40;99.90;;;;;;4994999;28;20870;-66
2022/07/04 01:00:30;;;;;;;3.60;3.30;;;21.50;99.90;;;;;;4990640;28;20566;-65
2022/07/04 01:02:55;;;;;;;4.43;3.77;;;21.50;99.90;;;;;;4991333;28;20175;-65
2022/07/04 01:05:21;;;;;;;2.93;2.60;;;21.50;99.90;;;;;;4990372;28;20253;-65
2022/07/04 01:07:47;;;;;;;3.40;3.03;;;21.40;99.90;;;;;;4991757;28;20199;-67
2022/07/04 01:10:12;;;;;;;3.43;2.77;;;21.40;99.90;;;;;;4988585;28;20194;-67
2022/07/04 01:12:38;;;;;;;3.00;2.80;;;21.40;99.90;;;;;;4992064;28;20249;-66
2022/07/04 01:15:07;;;;;;;2.70;2.50;;;21.30;99.90;;;;;;4990395;28;20179;-66
2022/07/04 01:17:33;;;;;;;4.70;3.83;;;21.20;99.90;;;;;;4991016;28;20199;-65
2022/07/04 01:19:59;;;;;;;2.97;2.70;;;21.20;99.90;;;;;;4991329;28;21051;-65
2022/07/04 01:22:25;;;;;;;2.87;2.67;;;21.10;99.90;;;;;;4991178;28;20514;-65
2022/07/04 01:24:53;;;;;;;2.70;2.50;;;21.10;99.90;;;;;;4999159;28;20186;-66
2022/07/04 01:27:19;;;;;;;3.70;2.63;;;21.00;99.90;;;;;;4991661;28;20291;-65
2022/07/04 01:29:45;;;;;;;3.27;3.07;;;21.00;99.90;;;;;;4991948;28;20514;-67
2022/07/04 01:32:10;;;;;;;3.10;2.90;;;21.00;99.90;;;;;;4992016;28;20267;-64
2022/07/04 01:34:36;;;;;;;3.60;3.40;;;21.00;99.90;;;;;;4997147;28;20525;-65
2022/07/04 01:37:02;;;;;;;6.93;3.00;;;21.00;99.90;;;;;;4992640;28;20196;-66
2022/07/04 01:39:28;;;;;;;3.07;2.77;;;21.00;99.90;;;;;;4989281;28;20206;-65
2022/07/04 01:41:54;;;;;;;4.50;2.87;;;21.00;99.90;;;;;;4990866;28;20183;-66
2022/07/04 01:44:21;;;;;;;3.13;2.53;;;21.00;99.90;;;;;;4987869;28;20439;-66
2022/07/04 01:46:46;;;;;;;4.40;2.90;;;20.90;99.90;;;;;;4990582;28;20492;-66
2022/07/04 01:49:12;;;;;;;5.40;2.80;;;20.90;99.90;;;;;;4990565;28;20434;-67
2022/07/04 01:51:45;;;;;;;2.50;2.30;;;20.90;99.90;;;;;;4990627;28;20980;-65
2022/07/04 01:54:10;;;;;;;3.10;2.80;;;20.90;99.90;;;;;;4992403;28;20226;-67
2022/07/04 01:56:36;;;;;;;4.47;2.97;;;20.90;99.90;;;;;;4983969;28;20454;-65
2022/07/04 01:59:03;;;;;;;6.57;2.67;;;20.80;99.90;;;;;;4991178;28;20194;-66
2022/07/04 02:01:29;;;;;;;3.83;2.87;;;20.80;99.90;;;;;;4996912;28;20175;-65
2022/07/04 02:03:55;;;;;;;4.30;2.60;;;20.80;99.90;;;;;;4989957;28;20939;-65
2022/07/04 02:06:21;;;;;;;3.30;3.00;;;20.90;99.90;;;;;;4990532;28;20349;-65
2022/07/04 02:13:00;;;;;;;3.00;2.70;;;20.90;99.90;;;;;;4989507;28;20676;-66
2022/07/04 02:14:16;;;;;;;4.57;3.00;;;20.90;99.90;;;;;;4989873;28;20521;-65
2022/07/04 02:16:41;;;;;;;4.23;3.30;;;20.80;99.90;;;;;;4992817;28;20560;-65
2022/07/04 02:19:07;;;;;;;3.00;2.80;;;20.80;99.90;;;;;;4989309;28;20252;-66
2022/07/04 02:21:32;;;;;;;2.73;2.50;;;20.70;99.90;;;;;;4990492;28;20176;-65
2022/07/04 02:23:58;;;;;;;2.80;2.60;;;20.60;99.90;;;;;;4997054;28;20262;-65
2022/07/04 02:26:23;;;;;;;3.37;3.10;;;20.60;99.90;;;;;;4996040;28;20214;-66
2022/07/04 02:28:49;;;;;;;4.90;2.60;;;20.60;99.90;;;;;;5000452;28;20660;-65
2022/07/04 02:31:14;;;;;;;2.83;2.63;;;20.60;99.90;;;;;;4991655;28;20186;-66
2022/07/04 02:33:40;;;;;;;2.83;2.63;;;20.50;99.90;;;;;;4994340;28;20183;-67
2022/07/04 02:36:05;;;;;;;2.90;2.70;;;20.50;99.90;;;;;;4993596;28;20198;-65
2022/07/04 02:38:31;;;;;;;3.00;2.50;;;20.50;99.90;;;;;;4998961;28;20213;-66
2022/07/04 02:40:56;;;;;;;4.53;3.07;;;20.40;99.90;;;;;;4997267;28;20689;-66
2022/07/04 02:43:22;;;;;;;3.60;3.30;;;20.50;99.90;;;;;;4993746;28;20180;-67
2022/07/04 02:45:47;;;;;;;5.20;2.40;;;20.30;99.90;;;;;;4993247;28;20274;-65
2022/07/04 02:48:13;;;;;;;3.90;3.60;;;20.30;99.90;;;;;;4995169;28;20195;-65
2022/07/04 02:50:38;;;;;;;4.10;3.70;;;20.30;99.90;;;;;;4994774;28;20191;-66
2022/07/04 02:53:04;;;;;;;3.20;2.60;;;20.30;99.90;;;;;;4999476;28;20184;-65
2022/07/04 02:55:29;;;;;;;3.20;2.93;;;20.30;99.90;;;;;;4993732;28;20171;-66
2022/07/04 02:57:55;;;;;;;4.53;3.20;;;20.30;99.90;;;;;;5001263;28;20564;-65
2022/07/04 03:00:20;;;;;;;3.27;2.83;;;20.20;99.90;;;;;;4992880;28;20196;-66
2022/07/04 03:02:46;;;;;;;3.20;2.90;;;20.20;99.90;;;;;;4993961;28;20182;-67
2022/07/04 03:05:11;;;;;;;3.20;2.83;;;20.00;99.90;;;;;;5000999;28;20558;-67
2022/07/04 03:07:37;;;;;;;3.10;2.90;;;19.90;99.90;;;;;;4992326;28;20199;-65
2022/07/04 03:10:03;;;;;;;5.90;3.00;;;19.90;99.90;;;;;;4994717;28;20590;-65
2022/07/04 03:12:28;;;;;;;2.83;2.63;;;19.80;99.90;;;;;;4994829;28;20616;-66
2022/07/04 03:14:54;;;;;;;5.73;3.40;;;19.80;99.90;;;;;;4998493;28;20187;-65
2022/07/04 03:17:20;;;;;;;3.73;3.20;;;19.80;99.90;;;;;;4991555;28;20293;-65
2022/07/04 03:19:45;;;;;;;3.53;3.23;;;19.80;99.90;;;;;;4994068;28;20234;-65
2022/07/04 03:22:11;;;;;;;3.10;2.80;;;19.70;99.90;;;;;;4993931;28;20862;-66
2022/07/04 03:24:36;;;;;;;3.47;3.07;;;19.70;99.90;;;;;;4999413;28;20539;-66
2022/07/04 03:27:02;;;;;;;3.63;3.10;;;19.70;99.90;;;;;;4991234;28;20204;-65
2022/07/04 03:29:27;;;;;;;6.73;3.43;;;19.50;99.90;;;;;;4993454;28;20187;-64
2022/07/04 03:31:53;;;;;;;3.07;2.87;;;19.50;99.90;;;;;;4993779;28;20676;-65
2022/07/04 03:34:19;;;;;;;4.27;3.17;;;19.30;99.90;;;;;;4996590;28;20187;-65
2022/07/04 03:36:44;;;;;;;6.87;3.50;;;19.40;99.90;;;;;;4997440;28;20242;-65
2022/07/04 03:39:10;;;;;;;3.80;3.43;;;19.40;99.90;;;;;;4994765;28;20566;-66
2022/07/04 03:41:36;;;;;;;4.17;3.77;;;19.40;99.90;;;;;;4999132;28;20179;-65
2022/07/04 03:44:02;;;;;;;3.10;2.90;;;19.40;99.90;;;;;;4992757;28;20206;-65
2022/07/04 03:46:27;;;;;;;3.80;3.50;;;19.50;99.90;;;;;;4992754;28;20207;-65
2022/07/04 03:48:53;;;;;;;2.97;2.87;;;19.40;99.90;;;;;;5000189;28;20442;-65
2022/07/04 03:51:19;;;;;;;4.23;3.93;;;19.30;99.90;;;;;;4993694;28;20261;-66
2022/07/04 03:53:44;;;;;;;5.07;2.77;;;19.30;99.90;;;;;;4994967;28;20983;-64
2022/07/04 03:56:10;;;;;;;3.47;3.23;;;19.30;99.90;;;;;;4992659;28;20195;-66
2022/07/04 03:58:36;;;;;;;4.93;3.50;;;19.20;99.90;;;;;;5000214;28;20187;-66
2022/07/04 04:01:01;;;;;;;3.27;2.77;;;19.20;99.90;;;;;;4993363;28;20650;-66
2022/07/04 04:06:12;;;;;;;13.97;3.80;;;19.30;99.90;;;;;;4990086;28;20195;-65
2022/07/04 04:08:37;;;;;;;3.30;3.10;;;19.30;99.90;;;;;;4990851;28;20832;-66
2022/07/04 04:11:03;;;;;;;4.17;3.17;;;19.30;99.90;;;;;;4991314;28;20450;-66
2022/07/04 04:13:28;;;;;;;3.20;3.00;;;19.40;99.90;;;;;;4993456;28;20226;-66
2022/07/04 04:15:54;;;;;;;4.10;3.33;;;19.40;99.90;;;;;;4993646;28;20278;-67
2022/07/04 04:18:19;;;;;;;3.00;2.80;;;19.20;99.90;;;;;;4990484;28;20199;-66
2022/07/04 04:20:45;;;;;;;3.60;3.23;;;19.20;99.90;;;;;;4992283;28;20222;-67
2022/07/04 04:23:10;;;;;;;4.87;4.47;;;19.20;99.90;;;;;;4991143;28;20187;-66
2022/07/04 04:25:36;;;;;;;3.60;3.40;;;19.20;99.90;;;;;;4992908;28;20614;-66
2022/07/04 04:28:01;;;;;;;5.03;3.83;;;19.10;99.90;;;;;;4992621;28;20306;-66
2022/07/04 04:30:27;;;;;;;4.87;3.50;;;19.00;99.90;;;;;;4989024;28;20310;-66
2022/07/04 04:32:52;;;;;;;4.03;3.63;;;19.10;99.90;;;;;;4992054;28;20609;-66
2022/07/04 04:35:19;;;;;;;3.63;2.90;;;19.10;99.90;;;;;;4996189;28;20187;-67
2022/07/04 04:37:44;;;;;;;3.83;3.50;;;19.10;99.90;;;;;;5000380;28;20199;-66
2022/07/04 04:40:11;;;;;;;5.60;4.97;;;19.20;99.90;;;;;;4993681;28;20485;-66
2022/07/04 04:42:37;;;;;;;4.73;4.23;;;19.30;99.90;;;;;;4995583;28;20599;-66
2022/07/04 04:45:04;;;;;;;3.87;3.50;;;19.40;99.90;;;;;;4992820;28;20466;-66
2022/07/04 04:47:29;;;;;;;10.57;7.47;;;19.40;99.90;;;;;;4989382;28;20544;-66
2022/07/04 04:49:55;;;;;;;3.73;3.30;;;19.60;99.90;;;;;;4991980;28;20442;-67
2022/07/04 04:52:20;;;;;;;5.60;3.47;;;19.60;99.90;;;;;;4990595;28;20276;-66
2022/07/04 04:54:46;;;;;;;3.07;2.87;;;19.70;99.90;;;;;;4990477;28;20191;-66
2022/07/04 04:57:11;;;;;;;3.97;3.67;;;19.90;99.90;;;;;;4991120;28;20581;-66
2022/07/04 04:59:37;;;;;;;3.47;3.17;;;19.80;99.90;;;;;;4992784;28;20250;-65
2022/07/04 05:02:03;;;;;;;4.63;3.20;;;19.70;99.90;;;;;;4988584;28;20315;-66
2022/07/04 05:04:28;;;;;;;3.70;2.93;;;19.80;99.90;;;;;;4989957;28;20211;-66
2022/07/04 05:06:54;;;;;;;6.43;3.40;;;19.90;99.90;;;;;;4991573;28;20192;-65
2022/07/04 05:09:20;;;;;;;3.93;3.37;;;19.90;99.90;;;;;;5002513;28;20194;-67
2022/07/04 05:11:47;;;;;;;3.93;3.23;;;19.70;99.90;;;;;;4995998;28;20259;-67
2022/07/04 05:14:13;;;;;;;3.00;2.67;;;19.90;99.90;;;;;;4991567;28;20430;-67
2022/07/04 05:16:38;;;;;;;3.50;3.20;;;19.80;99.90;;;;;;4994415;28;20463;-67
2022/07/04 05:19:04;;;;;;;3.57;3.30;;;19.70;99.90;;;;;;4986483;28;20445;-66
2022/07/04 05:21:30;;;;;;;4.73;3.73;;;19.70;99.90;;;;;;4992292;28;20190;-67
2022/07/04 05:23:56;;;;;;;5.90;3.27;;;19.80;99.90;;;;;;4993080;28;20651;-67
2022/07/04 05:26:22;;;;;;;3.13;2.93;;;19.80;99.90;;;;;;4993043;28;20195;-67
2022/07/04 05:28:48;;;;;;;3.33;3.00;;;20.00;99.90;;;;;;4992273;28;20164;-66
2022/07/04 05:31:13;;;;;;;3.27;3.00;;;19.90;99.90;;;;;;4992847;28;20878;-66
2022/07/04 05:33:39;;;;;;;3.47;2.70;;;19.10;99.90;;;;;;4992953;28;20171;-67
2022/07/04 05:36:05;;;;;;;3.70;3.30;;;20.10;99.90;;;;;;4992683;28;20781;-67
2022/07/04 05:38:30;;;;;;;3.00;2.80;;;20.30;99.90;;;;;;4992031;28;20590;-66
2022/07/04 05:40:56;;;;;;;2.63;2.43;;;20.40;99.90;;;;;;4992666;28;20257;-67
2022/07/04 05:43:21;;;;;;;3.57;2.90;;;20.60;99.90;;;;;;4992712;28;20179;-67
2022/07/04 05:45:48;;;;;;;3.40;2.80;;;20.90;99.90;;;;;;4992653;28;20245;-67
2022/07/04 05:48:14;;;;;;;3.07;2.83;;;21.10;99.90;;;;;;4991796;28;20270;-66
2022/07/04 05:50:39;;;;;;;3.13;2.87;;;21.40;99.90;;;;;;4992609;28;20872;-67
2022/07/04 05:53:05;;;;;;;3.80;2.83;;;21.50;99.90;;;;;;4992661;28;20249;-66
2022/07/04 05:55:30;;;;;;;3.03;2.73;;;21.60;99.90;;;;;;4992642;28;20206;-67
2022/07/04 05:57:56;;;;;;;3.33;3.03;;;21.80;99.90;;;;;;4991828;28;20670;-67
2022/07/04 06:00:22;;;;;;;3.77;2.53;;;21.70;99.90;;;;;;4991576;28;20207;-67
2022/07/04 06:02:47;;;;;;;3.23;3.03;;;21.90;99.90;;;;;;4992449;28;20549;-67
2022/07/04 06:05:13;;;;;;;3.07;2.87;;;22.00;99.90;;;;;;4992344;28;20184;-66
2022/07/04 06:07:38;;;;;;;3.83;3.23;;;22.10;99.90;;;;;;4992283;28;20196;-67
2022/07/04 06:10:06;;;;;;;3.33;2.80;;;22.30;99.90;;;;;;4991609;28;20259;-67
2022/07/04 06:12:32;;;;;;;6.03;2.30;;;22.20;99.90;;;;;;4992352;28;20207;-66
2022/07/04 06:14:58;;;;;;;3.20;2.90;;;22.40;99.90;;;;;;4992438;28;20851;-66
2022/07/04 06:17:23;;;;;;;2.90;2.70;;;22.30;99.90;;;;;;4992299;28;20195;-66
2022/07/04 06:19:49;;;;;;;4.07;2.37;;;22.10;99.90;;;;;;4991457;28;20463;-66
2022/07/04 06:22:14;;;;;;;2.87;2.67;;;22.20;99.90;;;;;;4992190;28;20176;-67
2022/07/04 06:24:40;;;;;;;2.70;2.50;;;22.20;99.90;;;;;;4992296;28;20172;-67
2022/07/04 06:27:05;;;;;;;2.97;2.77;;;22.30;99.90;;;;;;4992172;28;20193;-67
2022/07/04 06:29:31;;;;;;;6.13;3.13;;;22.60;99.90;;;;;;4991548;28;20186;-66
2022/07/04 06:31:57;;;;;;;6.10;5.50;;;22.50;99.90;;;;;;4992176;28;20187;-67
2022/07/04 06:37:06;;;;;;;3.90;2.83;;;22.90;99.90;;;;;;4992218;28;20230;-67
2022/07/04 06:39:32;;;;;;;5.70;3.07;;;23.10;99.90;;;;;;4991439;28;20493;-66
2022/07/04 06:41:57;;;;;;;4.73;3.00;;;23.50;99.90;;;;;;4992090;28;20200;-67
2022/07/04 06:44:23;;;;;;;3.10;2.30;;;23.40;99.90;;;;;;4992144;28;20590;-67
2022/07/04 06:46:48;;;;;;;2.70;2.50;;;23.40;99.90;;;;;;4991978;28;20212;-67
2022/07/04 06:49:14;;;;;;;2.87;2.53;;;23.60;99.90;;;;;;4991195;28;20549;-66
2022/07/04 06:51:39;;;;;;;2.50;2.30;;;23.80;99.90;;;;;;4991966;28;20322;-67
2022/07/04 06:54:05;;;;;;;3.03;2.80;;;23.90;99.90;;;;;;4991971;28;20176;-67
2022/07/04 06:56:31;;;;;;;3.50;2.67;;;24.10;99.90;;;;;;4991938;28;20250;-67
2022/07/04 06:58:57;;;;;;;3.53;2.60;;;24.00;99.90;;;;;;4991293;28;20173;-67
2022/07/04 07:01:22;;;;;;;3.57;2.33;;;23.50;99.90;;;;;;4991843;28;20462;-67
2022/07/04 07:03:48;;;;;;;4.33;2.93;;;23.70;99.90;;;;;;4977472;28;20642;-66
2022/07/04 07:06:13;;;;;;;3.23;2.67;;;23.70;99.90;;;;;;4968757;28;20183;-66
2022/07/04 07:08:39;;;;;;;4.60;3.27;;;24.00;99.90;;;;;;4993070;28;20221;-66
2022/07/04 07:11:13;;;;;;;3.87;3.07;;;24.20;99.90;;;;;;4975229;28;20235;-67
2022/07/04 07:13:44;;;;;;;2.70;2.53;;;24.40;99.90;;;;;;4979169;28;20253;-67
2022/07/04 07:16:11;;;;;;;3.30;2.40;;;24.50;99.90;;;;;;4995292;28;20811;-66
2022/07/04 07:18:36;;;;;;;4.27;2.47;;;24.60;99.90;;;;;;4994544;28;20928;-66
2022/07/04 07:21:02;;;;;;;3.13;2.23;;;24.90;99.90;;;;;;4995162;28;20556;-66
2022/07/04 07:23:28;;;;;;;4.17;2.90;;;24.80;99.70;;;;;;4991901;28;20183;-66
2022/07/04 07:25:53;;;;;;;2.87;2.67;;;24.80;99.60;;;;;;4995315;28;20830;-66
2022/07/04 07:28:19;;;;;;;3.43;2.33;;;24.80;99.50;;;;;;4994398;28;20192;-66
2022/07/04 07:30:44;;;;;;;2.53;2.43;;;24.90;99.40;;;;;;4995167;28;20175;-65
2022/07/04 07:33:10;;;;;;;4.37;2.53;;;24.90;99.40;;;;;;4991750;28;20262;-66
2022/07/04 07:35:36;;;;;;;3.37;3.07;;;24.90;99.30;;;;;;4994994;28;20170;-65
2022/07/04 07:38:02;;;;;;;5.17;2.87;;;24.60;99.70;;;;;;4995008;28;20598;-66
2022/07/04 07:40:27;;;;;;;2.67;2.47;;;24.60;99.80;;;;;;4994205;28;20209;-66
2022/07/04 07:42:54;;;;;;;3.77;2.87;;;24.70;99.80;;;;;;4994081;28;20163;-66
2022/07/04 07:45:20;;;;;;;4.03;2.90;;;24.70;99.60;;;;;;4992600;28;20176;-66
2022/07/04 07:47:46;;;;;;;5.00;4.57;;;24.50;99.90;;;;;;4994692;28;20518;-66
2022/07/04 07:50:12;;;;;;;2.67;2.47;;;24.50;99.30;;;;;;4994093;28;20461;-66
2022/07/04 07:52:37;;;;;;;3.83;2.90;;;24.50;99.00;;;;;;4982990;28;20184;-66
2022/07/04 07:55:04;;;;;;;3.03;2.83;;;24.80;98.80;;;;;;4990333;28;20194;-65
2022/07/04 07:57:30;;;;;;;4.43;2.50;;;25.30;98.50;;;;;;4994487;28;20576;-66
2022/07/04 07:59:56;;;;;;;2.50;2.27;;;25.20;98.00;;;;;;4993630;28;20948;-66
2022/07/04 08:05:07;;;;;;;4.07;3.17;;;25.10;98.10;;;;;;4991557;28;20481;-66
2022/07/04 08:07:32;;;;;;;2.90;2.70;;;24.80;99.90;;;;;;4994366;28;20500;-66
2022/07/04 08:09:58;;;;;;;3.37;2.80;;;25.30;98.00;;;;;;4993373;28;20427;-66
2022/07/04 08:12:23;;;;;;;4.40;3.10;;;25.50;97.60;;;;;;4994290;28;20168;-66
2022/07/04 08:14:49;;;;;;;3.37;2.50;;;25.80;97.10;;;;;;4991187;28;20183;-66
2022/07/04 08:17:14;;;;;;;2.77;2.57;;;25.80;96.90;;;;;;4993737;28;20218;-66
2022/07/04 08:19:40;;;;;;;3.87;3.00;;;25.60;97.10;;;;;;4993598;28;20203;-65
2022/07/04 08:22:05;;;;;;;3.40;3.10;;;25.50;97.10;;;;;;4993382;28;20654;-66
2022/07/04 08:24:31;;;;;;;4.10;3.70;;;25.50;96.90;;;;;;4990950;28;20179;-66
2022/07/04 08:26:56;;;;;;;2.70;2.50;;;25.50;97.20;;;;;;4994042;28;20238;-66
2022/07/04 08:29:22;;;;;;;3.90;2.47;;;25.60;97.10;;;;;;4993598;28;20199;-66
2022/07/04 08:31:48;;;;;;;4.30;2.37;;;25.60;97.10;;;;;;4994166;28;20190;-66
2022/07/04 08:34:14;;;;;;;2.60;2.40;;;25.50;97.10;;;;;;4990758;28;20481;-66
2022/07/04 08:36:39;;;;;;;3.07;2.80;;;25.60;97.00;;;;;;4994095;28;20688;-66
2022/07/04 08:39:05;;;;;;;4.50;3.20;;;25.60;97.70;;;;;;4993282;28;20172;-66
2022/07/04 08:41:38;;;;;;;4.23;3.13;;;25.50;96.60;;;;;;4993802;28;20211;-66
2022/07/04 08:44:06;;;;;;;4.77;3.17;;;25.50;97.00;;;;;;4990587;28;20422;-66
2022/07/04 08:46:32;;;;;;;4.03;2.93;;;25.70;97.20;;;;;;4993631;28;20462;-66
2022/07/04 08:49:03;;;;;;;8.60;3.10;;;25.50;97.40;;;;;;4993090;28;20908;-66
2022/07/04 08:51:47;;;;;;;3.00;2.80;;;25.90;97.20;;;;;;4993875;28;20564;-66
2022/07/04 08:59:45;;;;;;;3.33;3.13;;;25.90;96.40;;;;;;4992986;28;20543;-66
2022/07/04 09:02:13;;;;;;;4.10;3.20;;;26.00;95.90;;;;;;4993538;28;20422;-66
2022/07/04 09:04:40;;;;;;;3.87;3.53;;;25.90;95.80;;;;;;4990125;28;20944;-66
2022/07/04 09:07:05;;;;;;;5.23;3.07;;;25.90;95.70;;;;;;4993644;28;20845;-66
2022/07/04 09:09:33;;;;;;;3.50;3.30;;;26.00;96.60;;;;;;4992724;28;20430;-66
2022/07/04 09:11:58;;;;;;;2.90;2.70;;;26.20;97.00;;;;;;4993346;28;20186;-66
2022/07/04 09:14:24;;;;;;;12.30;3.17;;;26.30;95.70;;;;;;4990031;28;20509;-66
2022/07/04 09:16:51;;;;;;;3.37;3.17;;;26.10;95.70;;;;;;4993142;28;20195;-66
2022/07/04 09:19:21;;;;;;;5.47;2.87;;;25.90;95.80;;;;;;4981808;28;20183;-66
2022/07/04 09:21:48;;;;;;;3.50;2.77;;;26.00;95.60;;;;;;4990460;28;20434;-66
2022/07/04 09:24:14;;;;;;;3.73;3.10;;;26.50;95.50;;;;;;4989690;28;20450;-66
2022/07/04 09:26:46;;;;;;;7.87;2.97;;;26.90;94.90;;;;;;4989419;28;21006;-66
2022/07/04 09:29:13;;;;;;;3.60;2.93;;;27.40;94.30;;;;;;4989243;28;20426;-66
2022/07/04 09:31:39;;;;;;;2.87;2.63;;;28.00;93.40;;;;;;4989448;28;20455;-66
2022/07/04 09:34:06;;;;;;;3.77;2.90;;;28.20;92.60;;;;;;4985978;28;20462;-66
2022/07/04 09:36:40;;;;;;;3.03;2.83;;;28.00;92.60;;;;;;4997053;28;20229;-66
2022/07/04 09:39:14;;;;;;;3.37;3.07;;;28.00;92.30;;;;;;5008728;28;20555;-66
2022/07/04 09:42:00;;;;;;;3.40;3.10;;;28.20;93.00;;;;;;4993499;28;20457;-66
2022/07/04 09:44:28;;;;;;;4.13;2.90;;;28.60;91.50;;;;;;4999145;28;20425;-66
2022/07/04 09:46:54;;;;;;;3.63;3.27;;;28.70;91.40;;;;;;4999166;28;20463;-66
2022/07/04 09:49:20;;;;;;;3.60;3.30;;;29.40;90.70;;;;;;4984941;28;20481;-66
2022/07/04 09:51:51;;;;;;;5.13;2.87;;;30.20;87.80;;;;;;4992762;28;20708;-67
2022/07/04 09:54:21;;;;;;;2.70;2.50;;;30.70;84.40;;;;;;4987972;28;20418;-66
2022/07/04 09:56:49;;;;;;;2.93;2.73;;;30.80;80.80;;;;;;4992539;28;20468;-65
2022/07/04 09:59:15;;;;;;;5.80;2.87;;;31.30;80.50;;;;;;4991609;28;20478;-66
2022/07/04 10:01:41;;;;;;;2.57;2.47;;;31.70;78.10;;;;;;4986624;28;20435;-65
2022/07/04 10:04:07;;;;;;;4.30;3.93;;;32.30;72.10;;;;;;4989199;28;20168;-65
2022/07/04 10:06:34;;;;;;;4.43;2.30;;;32.50;68.90;;;;;;4992526;28;20449;-65
2022/07/04 10:09:13;;;;;;;3.00;2.67;;;32.40;68.00;;;;;;4992173;28;20466;-66
2022/07/04 10:11:40;;;;;;;2.90;2.73;;;32.50;66.10;;;;;;4992737;28;20422;-63
2022/07/04 10:14:08;;;;;;;2.53;2.30;;;32.00;66.20;;;;;;4988702;28;20419;-68
2022/07/04 10:16:34;;;;;;;3.47;3.00;;;32.80;66.50;;;;;;5002801;28;20890;-64
2022/07/04 10:18:59;;;;;;;2.60;2.30;;;34.00;64.50;;;;;;5011217;28;20421;-65
2022/07/04 10:21:25;;;;;;;2.93;2.70;;;35.00;59.10;;;;;;5005533;28;21014;-65
2022/07/04 10:23:51;;;;;;;2.70;2.50;;;35.30;56.80;;;;;;4987456;28;20184;-66
2022/07/04 10:26:22;;;;;;;4.20;2.80;;;35.50;56.80;;;;;;4992464;28;20426;-67
2022/07/04 10:28:49;;;;;;;3.93;2.77;;;35.20;56.40;;;;;;4991644;28;20418;-64
2022/07/04 10:31:16;;;;;;;2.80;2.60;;;35.00;56.00;;;;;;4992452;28;20875;-65
2022/07/04 10:33:43;;;;;;;3.10;2.80;;;35.30;55.90;;;;;;4987727;28;20427;-69
2022/07/04 10:36:20;;;;;;;2.47;2.37;;;35.00;54.90;;;;;;4984712;28;20438;-66
2022/07/04 10:38:51;;;;;;;4.50;3.40;;;35.00;54.60;;;;;;4981122;28;20434;-65
2022/07/04 10:41:20;;;;;;;3.33;2.80;;;35.80;54.50;;;;;;4981302;28;20826;-64
2022/07/04 10:43:48;;;;;;;2.70;2.50;;;35.80;53.20;;;;;;4985963;28;20457;-68
2022/07/04 10:46:14;;;;;;;4.77;2.63;;;35.30;53.40;;;;;;4995345;28;20438;-64
2022/07/04 10:48:53;;;;;;;4.53;3.27;;;34.70;53.60;;;;;;4995266;28;20415;-64
2022/07/04 10:51:51;;;;;;;3.80;3.40;;;35.00;53.10;;;;;;4995972;28;20429;-66
2022/07/04 10:54:32;;;;;;;3.30;3.00;;;35.90;52.40;;;;;;4979552;28;20433;-65
2022/07/04 10:57:21;;;;;;;3.00;2.80;;;36.40;51.60;;;;;;5015154;28;20441;-67
2022/07/04 10:59:53;;;;;;;3.10;2.73;;;37.70;49.60;;;;;;5014579;28;20926;-65
2022/07/04 11:02:22;;;;;;;2.47;2.27;;;38.50;47.70;;;;;;5015340;28;20467;-65
2022/07/04 11:04:55;;;;;;;3.30;2.90;;;40.50;45.50;;;;;;4992974;28;20426;-65
2022/07/04 11:07:37;;;;;;;2.83;2.50;;;41.00;44.20;;;;;;4995576;28;20430;-65
2022/07/04 11:10:16;;;;;;;4.93;2.90;;;40.60;43.00;;;;;;4994928;28;20418;-65
2022/07/04 11:12:54;;;;;;;4.23;2.87;;;39.90;43.30;;;;;;4995526;28;20449;-65
2022/07/04 11:15:27;;;;;;;2.70;2.43;;;39.80;43.10;;;;;;4991626;28;20450;-64
2022/07/04 11:17:53;;;;;;;5.73;3.00;;;39.90;43.00;;;;;;4995225;28;20438;-66
2022/07/04 11:20:20;;;;;;;2.50;2.40;;;39.80;42.60;;;;;;4994845;28;20454;-65
2022/07/04 11:22:45;;;;;;;5.13;3.77;;;40.10;41.90;;;;;;4995516;28;20415;-65
2022/07/04 11:25:11;;;;;;;4.80;3.37;;;38.80;43.10;;;;;;5007153;28;20958;-66
2022/07/04 11:27:38;;;;;;;6.63;2.80;;;36.70;44.30;;;;;;5014798;28;20260;-66
2022/07/04 11:30:04;;;;;;;2.90;2.70;;;37.10;45.00;;;;;;4994410;28;20434;-65
2022/07/04 11:32:31;;;;;;;2.70;2.50;;;38.10;43.60;;;;;;4995278;28;20425;-65
2022/07/04 11:34:57;;;;;;;4.47;3.33;;;39.00;42.90;;;;;;4988849;28;20426;-64
2022/07/04 11:37:23;;;;;;;3.40;3.10;;;39.90;42.00;;;;;;4995075;28;20564;-65
2022/07/04 11:39:52;;;;;;;3.30;2.90;;;39.00;42.10;;;;;;4994283;28;20203;-65
2022/07/04 11:45:05;;;;;;;2.80;2.60;;;38.70;42.70;;;;;;4988998;28;20565;-65
2022/07/04 11:47:41;;;;;;;5.10;2.90;;;38.80;42.70;;;;;;4994930;28;20477;-65
2022/07/04 11:50:18;;;;;;;8.20;7.60;;;39.10;42.50;;;;;;4994265;28;20513;-67
2022/07/04 11:52:47;;;;;;;3.50;3.20;;;39.10;42.30;;;;;;4995072;28;20514;-65
2022/07/04 11:55:15;;;;;;;3.27;3.03;;;40.20;41.40;;;;;;4988536;28;20510;-67
2022/07/04 11:57:50;;;;;;;2.70;2.50;;;40.30;40.50;;;;;;4994647;28;20470;-67
2022/07/04 12:00:21;;;;;;;3.47;2.87;;;39.80;40.80;;;;;;4993963;28;20912;-65
2022/07/04 12:02:49;;;;;;;3.40;3.10;;;37.80;42.60;;;;;;4977306;28;20797;-66
2022/07/04 12:05:16;;;;;;;6.77;3.07;;;36.30;43.50;;;;;;4988362;28;20428;-66
2022/07/04 12:07:44;;;;;;;3.30;3.10;;;35.60;44.50;;;;;;4994591;28;20439;-64
2022/07/04 12:10:14;;;;;;;4.10;3.80;;;34.30;46.60;;;;;;4993632;28;20435;-65
2022/07/04 12:12:53;;;;;;;3.63;3.33;;;32.80;48.10;;;;;;4994645;28;20423;-66
2022/07/04 12:15:19;;;;;;;4.43;4.00;;;32.50;49.40;;;;;;4988980;28;20810;-65
2022/07/04 12:17:44;;;;;;;2.83;2.63;;;34.20;48.10;;;;;;4994489;28;20945;-65
2022/07/04 12:20:17;;;;;;;3.97;2.93;;;35.30;46.60;;;;;;4993748;28;20521;-65
2022/07/04 12:23:03;;;;;;;4.03;3.00;;;36.50;45.00;;;;;;4994370;28;20175;-64
2022/07/04 12:25:37;;;;;;;4.03;2.83;;;37.10;44.20;;;;;;4990146;28;20518;-65
2022/07/04 12:28:07;;;;;;;3.47;3.27;;;37.50;43.50;;;;;;4994134;28;20443;-66
2022/07/04 12:30:59;;;;;;;4.03;3.73;;;38.80;41.60;;;;;;4993562;28;21120;-64
2022/07/04 12:33:26;;;;;;;3.13;2.93;;;39.50;41.70;;;;;;4984572;28;20439;-67
2022/07/04 12:35:56;;;;;;;2.87;2.67;;;40.60;40.20;;;;;;4983115;28;20439;-65
2022/07/04 12:38:33;;;;;;;7.73;2.97;;;41.80;39.90;;;;;;4973695;28;20451;-66
2022/07/04 12:41:02;;;;;;;7.27;2.80;;;43.00;40.80;;;;;;4974326;28;20491;-64
2022/07/04 12:43:42;;;;;;;2.80;2.60;;;43.50;39.90;;;;;;4974291;28;20485;-68
2022/07/04 12:46:30;;;;;;;3.53;2.87;;;43.30;38.80;;;;;;4992709;28;20936;-66
2022/07/04 12:48:57;;;;;;;4.23;2.27;;;42.70;39.40;;;;;;4993165;28;20465;-67
2022/07/04 12:51:33;;;;;;;6.83;3.10;;;43.10;38.90;;;;;;4993925;28;20411;-65
2022/07/04 12:54:07;;;;;;;4.90;2.60;;;42.50;38.50;;;;;;4988108;28;20461;-67
2022/07/04 12:56:41;;;;;;;2.60;2.40;;;41.10;39.20;;;;;;4993136;28;20446;-65
2022/07/04 12:59:12;;;;;;;6.00;2.87;;;38.80;40.80;;;;;;4992703;28;20414;-66
2022/07/04 13:01:39;;;;;;;4.50;2.70;;;36.80;41.90;;;;;;4993199;28;20468;-64
2022/07/04 13:04:05;;;;;;;3.03;2.70;;;36.80;43.00;;;;;;4987651;28;20423;-67
2022/07/04 13:06:31;;;;;;;3.33;3.00;;;38.20;41.90;;;;;;4992880;28;20443;-64